Time;durP1;ratioP1;P1;durP2;ratioP2;P2;SDS_P1;SDS_P2;PMS_P1;PMS_P2;Temp;Humidity;BMP_temperature;BMP_pressure;BME280_temperature;BME280_humidity;BME280_pressure;Samples;Min_cycle;Max_cycle;Signal;HPM_P1;HPM_P2
2021/01/02 00:01:28;;;;;;;31.15;28.33;;;1.90;92.10;;;;;;5073962;28;20195;-78
2021/01/02 00:04:40;;;;;;;27.85;25.65;;;2.00;91.30;;;;;;5073726;28;20198;-78
2021/01/02 00:07:25;;;;;;;28.38;25.98;;;1.90;91.10;;;;;;5073370;28;20233;-78
2021/01/02 00:09:56;;;;;;;31.77;28.90;;;2.00;91.00;;;;;;5073657;28;20199;-77
2021/01/02 00:12:44;;;;;;;28.95;26.60;;;1.90;90.90;;;;;;5073347;28;20192;-77
2021/01/02 00:15:17;;;;;;;29.50;26.77;;;1.90;90.80;;;;;;5073436;28;20257;-77
2021/01/02 00:18:04;;;;;;;27.88;25.48;;;1.90;90.90;;;;;;5072996;28;20265;-77
2021/01/02 00:21:17;;;;;;;29.13;26.70;;;2.00;90.60;;;;;;5073552;28;20204;-78
2021/01/02 00:24:31;;;;;;;27.88;25.58;;;2.10;90.00;;;;;;5032556;28;20221;-78
2021/01/02 00:27:08;;;;;;;28.75;26.33;;;2.10;89.90;;;;;;5033127;28;20217;-78
2021/01/02 00:30:04;;;;;;;29.73;27.08;;;2.10;89.90;;;;;;5053047;28;20196;-77
2021/01/02 00:32:47;;;;;;;27.10;24.95;;;2.10;89.70;;;;;;5055338;28;20290;-77
2021/01/02 00:35:18;;;;;;;26.27;24.27;;;2.10;89.70;;;;;;5073355;28;20199;-78
2021/01/02 00:37:47;;;;;;;29.60;27.17;;;2.10;89.70;;;;;;5075341;28;20226;-78
2021/01/02 00:40:16;;;;;;;27.40;25.23;;;2.10;89.70;;;;;;5074801;28;20204;-78
2021/01/02 00:42:44;;;;;;;28.65;26.15;;;2.20;89.40;;;;;;5074598;28;20219;-77
2021/01/02 00:45:13;;;;;;;27.30;25.10;;;2.10;89.60;;;;;;5075557;28;20192;-78
2021/01/02 00:47:41;;;;;;;27.27;25.02;;;2.10;89.70;;;;;;5074756;28;20728;-78
2021/01/02 00:50:09;;;;;;;28.20;25.77;;;2.10;89.90;;;;;;5075139;28;20644;-78
2021/01/02 00:53:00;;;;;;;28.70;26.40;;;2.10;90.10;;;;;;5074285;28;20187;-78
2021/01/02 00:55:57;;;;;;;28.60;25.85;;;2.20;90.10;;;;;;5080655;28;20200;-79
2021/01/02 00:59:03;;;;;;;28.98;26.42;;;2.10;90.30;;;;;;5079038;28;20199;-78
2021/01/02 01:01:37;;;;;;;29.85;27.05;;;2.10;90.30;;;;;;5074525;28;20199;-78
2021/01/02 01:04:35;;;;;;;27.40;24.92;;;2.20;90.20;;;;;;5074840;28;20951;-77
2021/01/02 01:07:01;;;;;;;27.15;24.88;;;2.30;89.90;;;;;;5076254;28;20215;-78
2021/01/02 01:09:35;;;;;;;28.27;25.98;;;2.20;90.20;;;;;;5075727;28;20196;-77
2021/01/02 01:12:02;;;;;;;27.58;25.08;;;2.20;90.30;;;;;;5075456;28;20192;-78
2021/01/02 01:14:31;;;;;;;27.45;25.13;;;2.40;90.00;;;;;;5075865;28;20665;-78
2021/01/02 01:17:02;;;;;;;26.13;23.88;;;2.30;92.10;;;;;;5074982;28;20245;-78
2021/01/02 01:19:29;;;;;;;29.55;26.95;;;2.30;91.90;;;;;;5073481;28;20285;-78
2021/01/02 01:21:58;;;;;;;30.42;27.70;;;2.30;91.30;;;;;;5073782;28;20196;-78
2021/01/02 01:24:36;;;;;;;28.58;26.17;;;2.30;90.80;;;;;;5074466;28;20202;-78
2021/01/02 01:27:05;;;;;;;26.20;24.10;;;2.40;90.80;;;;;;5074386;28;20226;-78
2021/01/02 01:29:41;;;;;;;29.60;26.95;;;2.40;90.50;;;;;;5074543;28;20210;-77
2021/01/02 01:32:09;;;;;;;28.52;26.05;;;2.40;90.30;;;;;;5074563;28;20226;-78
2021/01/02 01:34:36;;;;;;;28.60;26.27;;;2.40;90.00;;;;;;5075544;28;20253;-77
2021/01/02 01:37:05;;;;;;;28.60;26.08;;;2.40;90.00;;;;;;5074936;28;20243;-77
2021/01/02 01:39:32;;;;;;;29.08;26.65;;;2.40;89.70;;;;;;5075250;28;20657;-78
2021/01/02 01:42:01;;;;;;;28.75;26.35;;;2.40;89.90;;;;;;5074015;28;20754;-78
2021/01/02 01:44:52;;;;;;;27.63;25.33;;;2.40;90.00;;;;;;5074951;28;20600;-78
2021/01/02 01:47:22;;;;;;;27.90;25.50;;;2.40;90.00;;;;;;5073961;28;20245;-77
2021/01/02 01:50:20;;;;;;;27.40;25.05;;;2.50;89.60;;;;;;5072220;28;20226;-78
2021/01/02 01:53:30;;;;;;;250.73;47.42;;;2.60;89.40;;;;;;5075704;28;20195;-78
2021/01/02 01:56:04;;;;;;;29.15;26.58;;;2.40;92.30;;;;;;5076199;28;20230;-78
2021/01/02 01:59:08;;;;;;;27.00;24.67;;;2.40;91.90;;;;;;5075912;28;20192;-78
2021/01/02 02:01:38;;;;;;;27.02;24.83;;;2.50;91.40;;;;;;5075839;28;20192;-77
2021/01/02 02:04:43;;;;;;;29.00;26.60;;;2.50;91.00;;;;;;5075888;28;20212;-77
2021/01/02 02:07:16;;;;;;;27.98;25.48;;;2.50;90.80;;;;;;5060945;28;20597;-78
2021/01/02 02:09:44;;;;;;;46.40;28.13;;;2.60;90.70;;;;;;5075741;28;20207;-77
2021/01/02 02:12:21;;;;;;;27.48;25.30;;;2.60;90.50;;;;;;5075967;28;20196;-78
2021/01/02 02:14:54;;;;;;;30.40;27.63;;;2.80;90.50;;;;;;5076098;28;20688;-77
2021/01/02 02:17:24;;;;;;;29.98;27.38;;;2.80;89.60;;;;;;5076244;28;20212;-78
2021/01/02 02:19:56;;;;;;;28.83;26.30;;;2.80;89.50;;;;;;5076284;28;20208;-78
2021/01/02 02:22:25;;;;;;;28.95;26.45;;;2.70;91.10;;;;;;5075970;28;20902;-78
2021/01/02 02:24:53;;;;;;;81.68;33.60;;;2.60;91.10;;;;;;5076005;28;20196;-77
2021/01/02 02:27:25;;;;;;;48.60;31.52;;;2.70;91.20;;;;;;5075532;28;20214;-77
2021/01/02 02:30:07;;;;;;;29.00;26.42;;;2.70;93.00;;;;;;5075917;28;20200;-77
2021/01/02 02:32:38;;;;;;;29.33;26.95;;;2.80;93.60;;;;;;5075736;28;20195;-78
2021/01/02 02:35:08;;;;;;;29.13;26.83;;;2.80;92.30;;;;;;5076077;28;20283;-77
2021/01/02 02:37:38;;;;;;;226.75;47.45;;;2.80;91.50;;;;;;5056124;28;20269;-77
2021/01/02 02:40:08;;;;;;;29.13;26.70;;;2.80;91.50;;;;;;5072459;28;20198;-77
2021/01/02 02:42:37;;;;;;;30.92;28.23;;;2.80;90.70;;;;;;5075543;28;20220;-77
2021/01/02 02:45:08;;;;;;;30.35;27.85;;;2.80;90.20;;;;;;5075754;28;20196;-78
2021/01/02 02:47:39;;;;;;;33.00;30.45;;;2.70;89.90;;;;;;5076048;28;20220;-77
2021/01/02 02:50:17;;;;;;;28.98;26.55;;;2.70;89.90;;;;;;5077041;28;20668;-77
2021/01/02 02:52:49;;;;;;;28.65;26.25;;;2.80;89.90;;;;;;5075554;28;20557;-78
2021/01/02 02:55:15;;;;;;;28.70;26.40;;;2.80;89.60;;;;;;5075442;28;20657;-77
2021/01/02 02:57:47;;;;;;;29.80;27.23;;;2.80;89.20;;;;;;5075503;28;20230;-78
2021/01/02 03:00:15;;;;;;;28.80;26.42;;;2.70;89.50;;;;;;5075840;28;20204;-78
2021/01/02 03:02:45;;;;;;;31.13;28.25;;;2.70;89.90;;;;;;5075225;28;20696;-78
2021/01/02 03:05:14;;;;;;;32.88;30.05;;;2.70;89.80;;;;;;5074356;28;20192;-77
2021/01/02 03:07:42;;;;;;;33.40;30.20;;;2.80;89.50;;;;;;5074475;28;20212;-77
2021/01/02 03:10:11;;;;;;;35.40;32.20;;;2.90;89.40;;;;;;5075148;28;20195;-78
2021/01/02 03:12:42;;;;;;;36.45;33.03;;;3.00;88.90;;;;;;5074997;28;20196;-78
2021/01/02 03:15:10;;;;;;;289.10;62.97;;;3.00;89.10;;;;;;5074400;28;20188;-78
2021/01/02 03:17:37;;;;;;;36.17;32.53;;;2.90;89.20;;;;;;5074466;28;20226;-78
2021/01/02 03:20:04;;;;;;;32.58;29.50;;;2.70;90.00;;;;;;5074820;28;20199;-78
2021/01/02 03:22:30;;;;;;;33.92;31.00;;;2.80;90.30;;;;;;5074709;28;20211;-78
2021/01/02 03:24:56;;;;;;;35.25;31.95;;;2.90;89.60;;;;;;5074319;28;20659;-78
2021/01/02 03:27:24;;;;;;;34.10;30.58;;;2.90;89.60;;;;;;5074380;28;20216;-78
2021/01/02 03:29:50;;;;;;;34.58;31.20;;;2.90;89.60;;;;;;5074578;28;20203;-78
2021/01/02 03:32:16;;;;;;;33.55;30.55;;;2.80;89.90;;;;;;5074406;28;20200;-78
2021/01/02 03:34:43;;;;;;;33.50;30.60;;;2.80;89.70;;;;;;5074604;28;20192;-78
2021/01/02 03:37:09;;;;;;;35.97;32.60;;;2.70;90.10;;;;;;5075867;28;20216;-78
2021/01/02 03:39:35;;;;;;;68.05;36.10;;;2.70;90.10;;;;;;5075495;28;20726;-77
2021/01/02 03:42:02;;;;;;;33.88;30.88;;;2.80;90.60;;;;;;5074215;28;20202;-78
2021/01/02 03:44:29;;;;;;;34.22;31.25;;;2.70;91.10;;;;;;5073922;28;20196;-78
2021/01/02 03:46:56;;;;;;;35.22;32.17;;;2.50;91.50;;;;;;5073552;28;20219;-78
2021/01/02 03:49:22;;;;;;;34.88;31.70;;;2.50;92.40;;;;;;5074234;28;20605;-78
2021/01/02 03:51:48;;;;;;;35.05;31.95;;;2.60;91.80;;;;;;5073957;28;20204;-78
2021/01/02 03:54:17;;;;;;;35.83;32.67;;;2.60;91.60;;;;;;5073827;28;20188;-78
2021/01/02 03:56:43;;;;;;;46.75;34.05;;;2.50;91.90;;;;;;5073832;28;20346;-78
2021/01/02 03:59:09;;;;;;;34.80;31.73;;;2.50;92.00;;;;;;5073702;28;20192;-78
2021/01/02 04:01:37;;;;;;;34.25;31.33;;;2.50;91.60;;;;;;5073825;28;20196;-78
2021/01/02 04:04:03;;;;;;;34.25;31.45;;;2.40;91.50;;;;;;5073409;28;20235;-78
2021/01/02 04:06:30;;;;;;;35.15;32.05;;;2.50;91.40;;;;;;5073362;28;20219;-78
2021/01/02 04:08:56;;;;;;;35.92;32.75;;;2.50;91.30;;;;;;5073473;28;20192;-77
2021/01/02 04:11:22;;;;;;;34.63;31.35;;;2.50;91.20;;;;;;5073671;28;20202;-78
2021/01/02 04:13:49;;;;;;;32.50;29.67;;;2.50;91.40;;;;;;5073555;28;20195;-78
2021/01/02 04:16:16;;;;;;;32.75;29.73;;;2.40;92.20;;;;;;5072557;28;20264;-78
2021/01/02 04:18:44;;;;;;;47.90;32.75;;;2.40;95.00;;;;;;5073082;28;20283;-78
2021/01/02 04:21:13;;;;;;;35.80;32.25;;;2.50;93.30;;;;;;5073293;28;20206;-77
2021/01/02 04:23:39;;;;;;;32.65;30.00;;;2.40;92.30;;;;;;5073411;28;20224;-78
2021/01/02 04:26:05;;;;;;;32.50;29.75;;;2.50;92.30;;;;;;5072615;28;20212;-77
2021/01/02 04:28:31;;;;;;;32.85;30.13;;;2.70;90.90;;;;;;5072937;28;20192;-78
2021/01/02 04:30:58;;;;;;;34.33;31.13;;;2.70;90.40;;;;;;5073089;28;20208;-78
2021/01/02 04:33:24;;;;;;;124.55;36.55;;;2.60;91.30;;;;;;5073149;28;20204;-78
2021/01/02 04:35:51;;;;;;;41.60;31.33;;;2.50;91.10;;;;;;5072710;28;20222;-78
2021/01/02 04:38:18;;;;;;;33.00;30.27;;;2.50;92.20;;;;;;5073326;28;20200;-78
2021/01/02 04:40:44;;;;;;;31.50;28.90;;;2.50;91.20;;;;;;5073099;28;20203;-78
2021/01/02 04:43:11;;;;;;;31.17;28.67;;;2.50;93.10;;;;;;5072996;28;20219;-78
2021/01/02 04:45:38;;;;;;;67.97;33.70;;;2.70;91.60;;;;;;5072714;28;20192;-77
2021/01/02 04:48:06;;;;;;;32.80;30.20;;;2.80;90.70;;;;;;5072852;28;20254;-78
2021/01/02 04:50:33;;;;;;;33.95;30.95;;;2.80;90.20;;;;;;5073269;28;20192;-77
2021/01/02 04:53:04;;;;;;;33.63;30.65;;;2.70;90.70;;;;;;5074925;28;20188;-78
2021/01/02 04:55:32;;;;;;;33.22;30.52;;;2.80;90.10;;;;;;5078378;28;20654;-77
2021/01/02 04:58:03;;;;;;;32.60;29.80;;;2.80;89.50;;;;;;5075074;28;20195;-77
2021/01/02 05:00:29;;;;;;;32.22;29.33;;;2.70;89.40;;;;;;5072844;28;20603;-77
2021/01/02 05:02:58;;;;;;;34.65;31.67;;;2.70;89.50;;;;;;5072678;28;20212;-77
2021/01/02 05:05:24;;;;;;;34.65;31.58;;;2.70;89.40;;;;;;5072526;28;20741;-77
2021/01/02 05:07:50;;;;;;;34.03;30.90;;;2.80;89.10;;;;;;5072322;28;20195;-78
2021/01/02 05:10:17;;;;;;;35.92;32.85;;;2.70;89.60;;;;;;5072493;28;20196;-78
2021/01/02 05:12:44;;;;;;;35.38;31.80;;;2.70;89.30;;;;;;5072294;28;20196;-78
2021/01/02 05:15:12;;;;;;;34.10;31.20;;;2.60;89.70;;;;;;5072676;28;20192;-78
2021/01/02 05:17:40;;;;;;;35.08;31.77;;;2.50;90.80;;;;;;5072499;28;20220;-78
2021/01/02 05:20:09;;;;;;;34.35;31.35;;;2.50;90.60;;;;;;5072573;28;20198;-77
2021/01/02 05:22:36;;;;;;;34.10;30.80;;;2.40;91.40;;;;;;5072137;28;20212;-78
2021/01/02 05:25:14;;;;;;;33.65;30.65;;;2.30;91.70;;;;;;5072577;28;20202;-78
2021/01/02 05:27:43;;;;;;;33.03;30.05;;;2.50;91.10;;;;;;5075213;28;20220;-77
2021/01/02 05:30:31;;;;;;;38.55;31.10;;;2.60;89.90;;;;;;5076709;28;20195;-78
2021/01/02 05:33:03;;;;;;;33.05;29.95;;;2.40;90.70;;;;;;5056762;28;20200;-77
2021/01/02 05:35:34;;;;;;;37.22;33.30;;;2.50;90.70;;;;;;5056774;28;20204;-77
2021/01/02 05:38:14;;;;;;;33.22;30.13;;;2.40;91.20;;;;;;5060223;28;20199;-78
2021/01/02 05:40:43;;;;;;;34.05;30.33;;;2.40;92.40;;;;;;5063774;28;20716;-78
2021/01/02 05:43:11;;;;;;;33.92;30.90;;;2.30;92.00;;;;;;5077439;28;20578;-78
2021/01/02 05:45:37;;;;;;;35.10;31.60;;;2.30;92.40;;;;;;5076147;28;20200;-78
2021/01/02 05:48:15;;;;;;;35.63;32.00;;;2.20;92.80;;;;;;5076170;28;20212;-78
2021/01/02 05:50:47;;;;;;;34.90;31.65;;;2.20;92.70;;;;;;5076168;28;20190;-78
2021/01/02 05:53:21;;;;;;;35.00;31.60;;;2.20;94.00;;;;;;5076202;28;20565;-78
2021/01/02 05:55:56;;;;;;;1999.90;318.40;;;2.20;93.70;;;;;;5075947;28;20219;-78
2021/01/02 05:58:23;;;;;;;40.90;33.88;;;2.30;97.10;;;;;;5076175;28;20195;-78
2021/01/02 06:00:49;;;;;;;744.40;116.28;;;2.30;95.80;;;;;;5075894;28;20223;-78
2021/01/02 06:03:24;;;;;;;40.92;36.60;;;2.30;96.80;;;;;;5076068;28;20302;-78
2021/01/02 06:05:58;;;;;;;45.10;36.75;;;2.30;96.00;;;;;;5055750;28;20216;-78
2021/01/02 06:08:42;;;;;;;42.88;36.40;;;2.30;94.50;;;;;;5055954;28;20254;-78
2021/01/02 06:11:11;;;;;;;39.50;35.40;;;2.20;94.00;;;;;;5063016;28;20271;-78
2021/01/02 06:13:40;;;;;;;57.13;39.55;;;2.20;94.00;;;;;;5075565;28;20815;-78
2021/01/02 06:16:08;;;;;;;46.40;37.03;;;2.20;94.90;;;;;;5075727;28;20259;-78
2021/01/02 06:18:36;;;;;;;40.95;36.60;;;2.20;94.20;;;;;;5075839;28;20203;-78
2021/01/02 06:21:05;;;;;;;45.15;35.75;;;2.10;94.60;;;;;;5075535;28;20202;-78
2021/01/02 06:23:33;;;;;;;49.83;37.47;;;2.20;94.60;;;;;;5075579;28;20623;-78
2021/01/02 06:26:00;;;;;;;50.17;37.00;;;2.20;93.90;;;;;;5075571;28;20216;-78
2021/01/02 06:28:26;;;;;;;49.67;36.88;;;2.30;93.40;;;;;;5075472;28;20192;-78
2021/01/02 06:31:05;;;;;;;46.63;39.03;;;2.30;95.60;;;;;;5075315;28;20212;-78
2021/01/02 06:33:33;;;;;;;51.30;38.25;;;2.40;94.00;;;;;;5075452;28;20677;-78
2021/01/02 06:35:59;;;;;;;45.00;38.10;;;2.30;93.90;;;;;;5075032;28;20212;-78
2021/01/02 06:38:27;;;;;;;45.20;37.47;;;2.30;94.10;;;;;;5074787;28;20599;-78
2021/01/02 06:40:54;;;;;;;48.95;39.00;;;2.30;93.90;;;;;;5075357;28;20278;-78
2021/01/02 06:43:22;;;;;;;38.72;34.60;;;2.20;93.90;;;;;;5075316;28;20245;-78
2021/01/02 06:45:57;;;;;;;44.17;38.45;;;2.20;94.00;;;;;;5074575;28;20216;-78
2021/01/02 06:48:40;;;;;;;77.55;38.65;;;2.20;94.20;;;;;;5075278;28;20213;-78
2021/01/02 06:51:32;;;;;;;42.70;36.20;;;2.20;94.30;;;;;;5074781;28;20200;-78
2021/01/02 06:54:00;;;;;;;40.80;34.88;;;2.20;94.20;;;;;;5075322;28;20288;-78
2021/01/02 06:56:31;;;;;;;47.30;36.60;;;2.10;94.70;;;;;;5074607;28;20212;-78
2021/01/02 06:58:58;;;;;;;307.30;57.20;;;2.10;95.40;;;;;;5074973;28;20200;-78
2021/01/02 07:01:41;;;;;;;44.28;38.45;;;2.20;96.10;;;;;;5074946;28;20239;-78
2021/01/02 07:04:09;;;;;;;48.40;36.33;;;2.20;95.50;;;;;;5074848;28;20223;-78
2021/01/02 07:06:42;;;;;;;1695.75;257.52;;;2.20;95.80;;;;;;5075043;28;20212;-79
2021/01/02 07:09:26;;;;;;;46.20;35.15;;;2.20;97.30;;;;;;5074821;28;20665;-78
2021/01/02 07:12:15;;;;;;;41.80;35.35;;;2.30;97.40;;;;;;5074875;28;20282;-78
2021/01/02 07:14:42;;;;;;;42.67;34.97;;;2.30;97.10;;;;;;5074542;28;20582;-78
2021/01/02 07:17:13;;;;;;;41.25;36.13;;;2.20;96.10;;;;;;5074225;28;20235;-78
2021/01/02 07:19:44;;;;;;;42.25;33.83;;;2.30;95.80;;;;;;5074847;28;20278;-78
2021/01/02 07:22:27;;;;;;;38.63;34.65;;;2.30;94.60;;;;;;5074456;28;20194;-78
2021/01/02 07:25:01;;;;;;;42.90;34.38;;;2.20;94.00;;;;;;5072415;28;20196;-78
2021/01/02 07:27:30;;;;;;;39.35;35.28;;;2.30;94.10;;;;;;5074074;28;20220;-78
2021/01/02 07:29:59;;;;;;;72.18;37.67;;;2.20;93.80;;;;;;5073904;28;20199;-78
2021/01/02 07:32:27;;;;;;;72.18;35.58;;;2.10;94.90;;;;;;5074310;28;20208;-78
2021/01/02 07:34:56;;;;;;;126.45;37.78;;;2.20;95.30;;;;;;5074499;28;20196;-78
2021/01/02 07:37:23;;;;;;;39.10;33.42;;;2.20;95.80;;;;;;5077339;28;20223;-78
2021/01/02 07:39:58;;;;;;;35.40;31.65;;;2.20;96.40;;;;;;5074845;28;20202;-77
2021/01/02 07:42:27;;;;;;;36.60;32.70;;;2.30;96.10;;;;;;5074183;28;20242;-78
2021/01/02 07:45:02;;;;;;;36.40;30.92;;;2.30;95.00;;;;;;5074236;28;20238;-78
2021/01/02 07:47:29;;;;;;;1999.90;476.98;;;2.20;95.30;;;;;;5073691;28;20219;-77
2021/01/02 07:50:00;;;;;;;37.83;33.72;;;2.20;95.70;;;;;;5072954;28;20653;-78
2021/01/02 07:52:27;;;;;;;636.17;102.65;;;2.30;95.50;;;;;;5073732;28;20594;-78
2021/01/02 07:54:54;;;;;;;39.00;34.78;;;2.30;95.70;;;;;;5073819;28;20200;-77
2021/01/02 07:57:23;;;;;;;72.85;38.13;;;2.30;95.10;;;;;;5073828;28;20222;-78
2021/01/02 07:59:50;;;;;;;1637.20;227.93;;;2.30;95.20;;;;;;5073817;28;20192;-78
2021/01/02 08:02:21;;;;;;;150.93;44.40;;;2.40;98.80;;;;;;5074079;28;20196;-78
2021/01/02 08:04:49;;;;;;;1482.32;223.18;;;2.40;98.80;;;;;;5075089;28;20633;-78
2021/01/02 08:07:16;;;;;;;36.22;32.42;;;2.40;98.70;;;;;;5078434;28;20212;-78
2021/01/02 08:09:44;;;;;;;39.13;33.17;;;2.40;97.30;;;;;;5079551;28;20196;-77
2021/01/02 08:12:12;;;;;;;36.20;32.35;;;2.40;96.10;;;;;;5073789;28;20297;-77
2021/01/02 08:14:43;;;;;;;37.78;33.75;;;2.40;95.50;;;;;;5073607;28;20222;-78
2021/01/02 08:17:11;;;;;;;35.08;31.42;;;2.40;95.00;;;;;;5072993;28;20581;-78
2021/01/02 08:19:40;;;;;;;34.53;31.00;;;2.40;93.40;;;;;;5073026;28;20672;-78
2021/01/02 08:22:08;;;;;;;1999.90;650.72;;;2.50;93.90;;;;;;5073430;28;20200;-78
2021/01/02 08:24:36;;;;;;;1999.90;641.38;;;2.40;98.20;;;;;;5073377;28;20228;-78
2021/01/02 08:27:03;;;;;;;201.35;49.75;;;2.50;99.90;;;;;;5072809;28;20238;-78
2021/01/02 08:29:33;;;;;;;37.75;33.72;;;2.50;98.50;;;;;;5073440;28;20610;-78
2021/01/02 08:32:05;;;;;;;38.83;31.70;;;2.50;97.20;;;;;;5073220;28;20224;-78
2021/01/02 08:34:33;;;;;;;36.38;32.05;;;2.50;98.60;;;;;;5073250;28;20246;-78
2021/01/02 08:37:03;;;;;;;42.45;35.40;;;2.50;97.20;;;;;;5072636;28;20649;-78
2021/01/02 08:39:30;;;;;;;41.70;34.20;;;2.50;96.80;;;;;;5073315;28;20192;-78
2021/01/02 08:41:58;;;;;;;39.50;33.78;;;2.60;95.90;;;;;;5073321;28;20196;-78
2021/01/02 08:44:27;;;;;;;37.72;33.65;;;2.60;95.20;;;;;;5073586;28;20224;-78
2021/01/02 08:46:54;;;;;;;37.05;32.80;;;2.50;94.20;;;;;;5072933;28;20216;-77
2021/01/02 08:49:34;;;;;;;37.05;33.30;;;2.60;94.20;;;;;;5073554;28;20602;-78
2021/01/02 08:52:14;;;;;;;36.58;32.75;;;2.60;94.50;;;;;;5073133;28;20196;-78
2021/01/02 08:54:41;;;;;;;38.60;34.65;;;2.60;93.40;;;;;;5073251;28;20195;-78
2021/01/02 08:57:26;;;;;;;300.17;57.67;;;2.50;93.20;;;;;;5072848;28;20264;-77
2021/01/02 09:00:04;;;;;;;55.78;35.25;;;2.60;94.30;;;;;;5072945;28;20199;-77
2021/01/02 09:02:30;;;;;;;39.28;35.35;;;2.50;93.90;;;;;;5073158;28;20192;-77
2021/01/02 09:05:04;;;;;;;35.78;32.28;;;2.60;94.90;;;;;;5073191;28;20192;-78
2021/01/02 09:07:31;;;;;;;36.13;32.33;;;2.60;93.90;;;;;;5072827;28;20238;-77
2021/01/02 09:10:13;;;;;;;1189.22;190.70;;;2.60;93.40;;;;;;5073051;28;20202;-78
2021/01/02 09:12:40;;;;;;;46.03;34.78;;;2.60;94.00;;;;;;5071503;28;20657;-77
2021/01/02 09:15:08;;;;;;;38.17;33.88;;;2.70;95.30;;;;;;5072450;28;20231;-78
2021/01/02 09:17:47;;;;;;;39.05;34.83;;;2.70;93.20;;;;;;5072128;28;20208;-78
2021/01/02 09:20:17;;;;;;;34.55;31.13;;;2.70;93.20;;;;;;5072336;28;20192;-77
2021/01/02 09:22:53;;;;;;;36.03;32.33;;;2.70;92.30;;;;;;5072616;28;20196;-78
2021/01/02 09:25:26;;;;;;;35.83;32.42;;;2.70;92.20;;;;;;5072849;28;20205;-78
2021/01/02 09:27:53;;;;;;;41.90;32.72;;;2.80;91.50;;;;;;5072449;28;20202;-78
2021/01/02 09:30:20;;;;;;;37.10;33.42;;;2.70;91.60;;;;;;5072699;28;20198;-78
2021/01/02 09:32:47;;;;;;;35.90;32.47;;;2.70;91.40;;;;;;5072515;28;20196;-78
2021/01/02 09:35:14;;;;;;;36.05;32.45;;;2.70;91.20;;;;;;5073083;28;20196;-77
2021/01/02 09:37:41;;;;;;;37.22;33.35;;;2.80;91.20;;;;;;5075163;28;20220;-78
2021/01/02 09:40:17;;;;;;;36.42;32.60;;;2.80;91.30;;;;;;5072720;28;20669;-77
2021/01/02 09:42:44;;;;;;;37.03;33.42;;;2.80;91.30;;;;;;5072500;28;20203;-78
2021/01/02 09:45:11;;;;;;;39.22;34.65;;;2.90;90.90;;;;;;5072471;28;20196;-78
2021/01/02 09:47:37;;;;;;;35.63;32.08;;;3.00;91.10;;;;;;5071591;28;20212;-77
2021/01/02 09:50:05;;;;;;;38.30;34.60;;;2.90;90.70;;;;;;5072445;28;20192;-78
2021/01/02 09:52:32;;;;;;;36.60;32.75;;;2.90;90.30;;;;;;5072193;28;20192;-77
2021/01/02 09:54:58;;;;;;;36.42;32.85;;;3.00;90.30;;;;;;5071972;28;20230;-78
2021/01/02 09:57:25;;;;;;;38.60;34.50;;;3.20;89.70;;;;;;5071884;28;20656;-77
2021/01/02 09:59:52;;;;;;;36.90;33.00;;;3.10;90.10;;;;;;5072214;28;20226;-77
2021/01/02 10:02:19;;;;;;;65.47;37.50;;;3.10;90.00;;;;;;5072130;28;20196;-77
2021/01/02 10:04:46;;;;;;;37.25;33.30;;;3.30;89.70;;;;;;5052137;28;20359;-77
2021/01/02 10:07:14;;;;;;;45.90;33.97;;;3.40;89.20;;;;;;5051953;28;20562;-77
2021/01/02 10:09:41;;;;;;;36.67;32.95;;;3.30;89.40;;;;;;5052186;28;20199;-77
2021/01/02 10:12:08;;;;;;;40.08;36.22;;;3.30;90.40;;;;;;5052149;28;20197;-78
2021/01/02 10:14:36;;;;;;;38.10;34.47;;;3.20;88.90;;;;;;5074557;28;20261;-78
2021/01/02 10:17:03;;;;;;;37.00;33.42;;;3.50;88.80;;;;;;5061429;28;20702;-77
2021/01/02 10:19:32;;;;;;;36.75;33.15;;;3.50;87.00;;;;;;5055863;28;20288;-77
2021/01/02 10:21:58;;;;;;;35.75;32.35;;;3.50;86.70;;;;;;5055710;28;20685;-78
2021/01/02 10:24:25;;;;;;;35.70;31.90;;;3.70;85.10;;;;;;5071824;28;20215;-78
2021/01/02 10:26:51;;;;;;;38.28;34.17;;;3.70;84.70;;;;;;5075140;28;20212;-78
2021/01/02 10:29:17;;;;;;;38.92;34.92;;;3.70;84.80;;;;;;5075648;28;20204;-78
2021/01/02 10:31:45;;;;;;;35.63;32.08;;;3.70;84.40;;;;;;5075550;28;20210;-78
2021/01/02 10:34:11;;;;;;;37.33;33.72;;;3.60;84.60;;;;;;5060778;28;20275;-78
2021/01/02 10:36:38;;;;;;;37.60;33.70;;;3.60;84.90;;;;;;5055711;28;20213;-77
2021/01/02 10:39:05;;;;;;;36.45;32.85;;;3.70;84.70;;;;;;5055636;28;20200;-77
2021/01/02 10:41:31;;;;;;;40.05;35.85;;;3.30;85.30;;;;;;5055422;28;20200;-78
2021/01/02 10:43:57;;;;;;;35.08;31.67;;;3.40;90.80;;;;;;5067864;28;20218;-77
2021/01/02 10:46:24;;;;;;;36.13;32.35;;;3.30;88.30;;;;;;5075114;28;20227;-78
2021/01/02 10:48:51;;;;;;;35.67;32.38;;;3.50;87.60;;;;;;5075310;28;20685;-78
2021/01/02 10:51:20;;;;;;;33.80;30.83;;;3.60;86.40;;;;;;5075321;28;20200;-78
2021/01/02 10:53:46;;;;;;;37.45;34.08;;;3.50;86.00;;;;;;5064146;28;20193;-77
2021/01/02 10:56:15;;;;;;;37.05;33.58;;;3.50;85.70;;;;;;5055073;28;20694;-78
2021/01/02 10:58:41;;;;;;;36.70;33.35;;;3.80;83.90;;;;;;5055216;28;20251;-78
2021/01/02 11:01:08;;;;;;;35.15;32.08;;;3.80;83.30;;;;;;5055175;28;20211;-78
2021/01/02 11:03:36;;;;;;;34.83;31.55;;;3.70;84.00;;;;;;5055140;28;20224;-78
2021/01/02 11:06:06;;;;;;;35.20;32.10;;;3.60;84.00;;;;;;5066719;28;20212;-77
2021/01/02 11:08:33;;;;;;;34.20;31.30;;;3.50;84.20;;;;;;5070089;28;20197;-77
2021/01/02 11:11:00;;;;;;;35.90;32.50;;;3.50;84.50;;;;;;5071180;28;20194;-78
2021/01/02 11:13:26;;;;;;;35.33;32.33;;;3.70;83.60;;;;;;5074825;28;20547;-77
2021/01/02 11:15:52;;;;;;;34.42;31.40;;;3.60;83.90;;;;;;5075289;28;20230;-77
2021/01/02 11:18:19;;;;;;;35.75;32.53;;;3.50;84.50;;;;;;5076346;28;20222;-77
2021/01/02 11:20:45;;;;;;;35.13;31.95;;;3.60;84.10;;;;;;5062629;28;20196;-78
2021/01/02 11:23:13;;;;;;;37.78;34.28;;;3.60;84.20;;;;;;5058660;28;20650;-77
2021/01/02 11:25:39;;;;;;;38.00;34.40;;;3.60;84.20;;;;;;5053381;28;20192;-77
2021/01/02 11:28:05;;;;;;;36.35;32.95;;;3.60;83.70;;;;;;5054827;28;20245;-77
2021/01/02 11:30:32;;;;;;;35.67;32.38;;;3.60;84.00;;;;;;5074008;28;20208;-78
2021/01/02 11:32:58;;;;;;;35.90;32.60;;;3.50;84.30;;;;;;5074457;28;20292;-77
2021/01/02 11:35:24;;;;;;;35.67;32.38;;;3.50;84.90;;;;;;5076664;28;20200;-78
2021/01/02 11:37:51;;;;;;;34.08;31.00;;;3.40;84.90;;;;;;5076638;28;20654;-77
2021/01/02 11:40:19;;;;;;;34.58;31.33;;;3.40;85.10;;;;;;5072841;28;20192;-78
2021/01/02 11:42:46;;;;;;;35.35;32.30;;;3.50;84.90;;;;;;5074449;28;20246;-78
2021/01/02 11:45:14;;;;;;;34.90;31.33;;;3.60;84.70;;;;;;5074496;28;20679;-78
2021/01/02 11:47:40;;;;;;;36.25;32.80;;;3.50;84.60;;;;;;5073981;28;20208;-78
2021/01/02 11:50:07;;;;;;;38.15;34.65;;;3.50;84.40;;;;;;5058176;28;20193;-78
2021/01/02 11:52:34;;;;;;;36.00;32.72;;;3.60;84.10;;;;;;5054341;28;20193;-78
2021/01/02 11:55:00;;;;;;;36.03;32.60;;;3.60;84.30;;;;;;5054296;28;20560;-78
2021/01/02 11:57:27;;;;;;;35.80;31.88;;;3.40;84.80;;;;;;5054167;28;20633;-78
2021/01/02 11:59:54;;;;;;;37.58;34.13;;;3.30;85.60;;;;;;5067831;28;20718;-77
2021/01/02 12:02:20;;;;;;;35.45;31.90;;;3.30;85.90;;;;;;5073683;28;20191;-78
2021/01/02 12:04:47;;;;;;;36.05;32.83;;;3.30;86.20;;;;;;5071741;28;20290;-78
2021/01/02 12:07:14;;;;;;;34.25;31.20;;;3.30;85.50;;;;;;5073530;28;20219;-78
2021/01/02 12:09:40;;;;;;;35.22;32.13;;;3.30;86.10;;;;;;5073806;28;20196;-78
2021/01/02 12:12:07;;;;;;;34.33;31.23;;;3.40;84.90;;;;;;5074000;28;20210;-78
2021/01/02 12:14:35;;;;;;;34.53;31.33;;;3.40;84.60;;;;;;5061881;28;20193;-77
2021/01/02 12:17:07;;;;;;;36.00;32.80;;;3.40;84.50;;;;;;5053492;28;20220;-78
2021/01/02 12:19:33;;;;;;;34.40;31.52;;;3.30;84.80;;;;;;5053880;28;20196;-78
2021/01/02 12:22:03;;;;;;;32.35;29.48;;;3.20;85.30;;;;;;5053891;28;20607;-78
2021/01/02 12:24:29;;;;;;;33.65;30.70;;;3.30;85.00;;;;;;5053847;28;20223;-78
2021/01/02 12:26:57;;;;;;;35.03;31.83;;;3.20;85.00;;;;;;5066495;28;20615;-78
2021/01/02 12:29:25;;;;;;;34.28;31.40;;;3.20;85.90;;;;;;5073340;28;20206;-78
2021/01/02 12:31:55;;;;;;;35.55;32.53;;;3.20;86.50;;;;;;5073142;28;20200;-78
2021/01/02 12:34:24;;;;;;;33.30;30.20;;;3.30;85.50;;;;;;5072891;28;20650;-78
2021/01/02 12:36:50;;;;;;;34.35;31.42;;;3.40;83.50;;;;;;5063345;28;20303;-78
2021/01/02 12:39:20;;;;;;;36.67;33.33;;;3.30;83.80;;;;;;5053246;28;20191;-78
2021/01/02 12:41:46;;;;;;;35.33;32.03;;;3.30;84.50;;;;;;5053108;28;20197;-77
2021/01/02 12:44:13;;;;;;;33.70;30.90;;;3.40;84.70;;;;;;5056422;28;20212;-78
2021/01/02 12:46:41;;;;;;;34.17;31.10;;;3.40;85.80;;;;;;5072816;28;20219;-78
2021/01/02 12:49:10;;;;;;;34.75;31.70;;;3.50;84.10;;;;;;5073257;28;20196;-78
2021/01/02 12:51:37;;;;;;;34.85;31.65;;;3.50;83.80;;;;;;5072983;28;20200;-78
2021/01/02 12:54:04;;;;;;;35.17;31.98;;;3.50;84.10;;;;;;5070989;28;20196;-78